createdAt,value
2023-04-29T00:01:44.639Z,84.24
2023-04-29T00:04:11.863Z,84.12
2023-04-29T00:06:39.025Z,84.03
2023-04-29T00:09:06.187Z,84.01
2023-04-29T00:11:33.610Z,83.94
2023-04-29T00:14:01.643Z,84.04
2023-04-29T00:16:28.742Z,83.80
2023-04-29T00:18:55.916Z,83.93
2023-04-29T00:21:23.069Z,83.97
2023-04-29T00:23:50.254Z,83.97
2023-04-29T00:26:17.319Z,83.80
2023-04-29T00:28:44.398Z,83.77
2023-04-29T00:31:11.692Z,83.68
2023-04-29T00:33:39.957Z,83.70
2023-04-29T00:36:08.760Z,83.80
2023-04-29T00:38:35.859Z,83.59
2023-04-29T00:41:03.733Z,83.75
2023-04-29T00:43:31.345Z,83.66
2023-04-29T00:45:58.703Z,83.51
2023-04-29T00:48:26.935Z,83.51
2023-04-29T00:50:53.996Z,83.56
2023-04-29T00:53:23.257Z,83.42
2023-04-29T00:55:51.904Z,83.50
2023-04-29T00:58:20.216Z,83.41
2023-04-29T01:00:47.678Z,83.44
2023-04-29T01:03:15.250Z,83.36
2023-04-29T01:05:42.681Z,83.25
2023-04-29T01:08:27.544Z,83.32
2023-04-29T01:11:09.730Z,83.07
2023-04-29T01:14:01.601Z,83.14
2023-04-29T01:16:41.406Z,83.07
2023-04-29T01:19:50.655Z,83.25
2023-04-29T01:22:19.027Z,83.26
2023-04-29T01:24:46.510Z,83.16
2023-04-29T01:27:53.258Z,83.28
2023-04-29T01:31:09.878Z,83.32
2023-04-29T01:33:51.058Z,83.39
2023-04-29T01:36:54.195Z,83.39
2023-04-29T01:39:46.104Z,83.59
2023-04-29T01:42:26.886Z,83.61
2023-04-29T01:44:56.963Z,83.71
2023-04-29T01:47:24.250Z,83.76
2023-04-29T01:49:51.699Z,83.88
2023-04-29T01:52:18.969Z,83.79
2023-04-29T01:54:46.391Z,83.89
2023-04-29T01:57:13.548Z,83.70
2023-04-29T01:59:41.108Z,84.01
2023-04-29T02:02:10.234Z,83.80
2023-04-29T02:04:37.582Z,83.72
2023-04-29T02:07:07.596Z,83.88
2023-04-29T02:09:35.010Z,83.74
2023-04-29T02:12:04.795Z,83.90
2023-04-29T02:14:32.274Z,83.86
2023-04-29T02:16:59.663Z,83.84
2023-04-29T02:19:26.993Z,83.86
2023-04-29T02:21:54.088Z,83.82
2023-04-29T02:24:21.605Z,83.88
2023-04-29T02:26:48.731Z,83.77
2023-04-29T02:29:15.796Z,83.75
2023-04-29T02:31:42.896Z,83.61
2023-04-29T02:34:10.002Z,83.64
2023-04-29T02:36:37.105Z,83.72
2023-04-29T02:39:04.864Z,83.61
2023-04-29T02:41:31.992Z,83.51
2023-04-29T02:43:59.084Z,83.46
2023-04-29T02:46:26.279Z,83.35
2023-04-29T02:48:53.587Z,83.39
2023-04-29T02:51:20.665Z,83.35
2023-04-29T02:53:47.763Z,83.30
2023-04-29T02:56:14.881Z,83.25
2023-04-29T02:58:42.508Z,83.31
2023-04-29T03:01:09.655Z,83.27
2023-04-29T03:03:36.976Z,83.23
2023-04-29T03:06:04.872Z,83.21
2023-04-29T03:08:32.081Z,83.23
2023-04-29T03:10:59.631Z,83.17
2023-04-29T03:13:26.762Z,83.25
2023-04-29T03:15:54.184Z,83.23
2023-04-29T03:18:21.290Z,83.06
2023-04-29T03:20:48.346Z,83.13
2023-04-29T03:23:15.533Z,83.05
2023-04-29T03:25:42.685Z,82.89
2023-04-29T03:28:09.775Z,82.86
2023-04-29T03:30:36.932Z,82.70
2023-04-29T03:33:04.351Z,83.04
2023-04-29T03:35:31.616Z,83.03
2023-04-29T03:37:58.695Z,82.93
2023-04-29T03:40:25.797Z,82.91
2023-04-29T03:42:52.876Z,83.02
2023-04-29T03:45:19.969Z,82.99
2023-04-29T05:05:07.489Z,83.32
2023-04-29T05:07:36.185Z,83.11
2023-04-29T05:10:04.229Z,83.41
2023-04-29T05:12:32.161Z,83.24
2023-04-29T05:14:59.321Z,83.27
2023-04-29T05:17:26.514Z,83.36
2023-04-29T05:19:53.848Z,83.24
2023-04-29T05:22:21.112Z,83.47
2023-04-29T05:24:53.043Z,83.33
2023-04-29T05:27:20.218Z,83.20
2023-04-29T05:29:47.512Z,83.47
2023-04-29T05:32:14.651Z,83.38
2023-04-29T05:34:41.858Z,83.34
2023-04-29T05:37:08.985Z,83.29
2023-04-29T05:39:36.154Z,83.32
2023-04-29T05:42:03.866Z,83.44
2023-04-29T05:44:31.106Z,83.36
2023-04-29T05:46:58.182Z,83.22
2023-04-29T05:49:25.254Z,83.46
2023-04-29T05:51:52.517Z,83.22
2023-04-29T05:54:19.589Z,83.13
2023-04-29T05:56:46.736Z,83.04
2023-04-29T05:59:13.795Z,83.09
2023-04-29T06:01:40.863Z,82.85
2023-04-29T06:04:08.468Z,82.88
2023-04-29T06:06:35.956Z,82.91
2023-04-29T06:09:04.022Z,82.85
2023-04-29T06:11:32.921Z,82.63
2023-04-29T06:13:59.982Z,82.60
2023-04-29T06:16:27.211Z,82.54
2023-04-29T06:18:54.345Z,82.53
2023-04-29T06:21:21.471Z,82.40
2023-04-29T06:23:48.571Z,82.40
2023-04-29T06:26:15.731Z,82.25
2023-04-29T06:28:42.948Z,82.01
2023-04-29T06:31:10.196Z,81.88
2023-04-29T06:33:37.677Z,81.81
2023-04-29T06:36:05.471Z,81.70
2023-04-29T06:38:32.839Z,81.65
2023-04-29T06:41:01.206Z,81.24
2023-04-29T06:43:28.546Z,81.32
2023-04-29T06:45:55.694Z,81.18
2023-04-29T06:48:23.217Z,80.97
2023-04-29T06:50:58.343Z,79.93
2023-04-29T06:53:25.443Z,79.44
2023-04-29T06:55:52.554Z,78.89
2023-04-29T06:58:20.331Z,78.65
2023-04-29T07:00:49.978Z,78.30
2023-04-29T07:03:18.802Z,77.69
2023-04-29T07:05:46.153Z,77.52
2023-04-29T07:08:13.906Z,76.69
2023-04-29T07:10:41.895Z,76.55
2023-04-29T07:13:09.144Z,75.56
2023-04-29T07:15:37.183Z,74.39
2023-04-29T07:18:06.210Z,73.54
2023-04-29T07:20:36.571Z,72.58
2023-04-29T07:23:03.713Z,72.95
2023-04-29T07:25:31.235Z,72.60
2023-04-29T07:27:58.323Z,72.09
2023-04-29T07:30:25.447Z,71.33
2023-04-29T07:32:52.651Z,70.76
2023-04-29T07:35:19.863Z,69.73
2023-04-29T07:37:47.145Z,69.08
2023-04-29T07:40:14.435Z,68.71
2023-04-29T07:42:41.545Z,68.74
2023-04-29T07:45:09.223Z,68.31
2023-04-29T07:47:36.809Z,68.28
2023-04-29T07:50:05.569Z,67.97
2023-04-29T07:52:32.919Z,67.72
2023-04-29T07:54:59.975Z,68.02
2023-04-29T07:57:27.068Z,67.86
2023-04-29T07:59:54.704Z,67.78
2023-04-29T08:02:22.071Z,67.88
2023-04-29T08:04:51.593Z,67.51
2023-04-29T08:07:19.244Z,67.67
2023-04-29T08:09:46.517Z,67.40
2023-04-29T08:12:13.584Z,67.47
2023-04-29T08:14:40.780Z,67.43
2023-04-29T08:17:08.951Z,67.10
2023-04-29T08:19:36.117Z,67.19
2023-04-29T08:22:04.439Z,66.86
2023-04-29T08:24:33.895Z,66.89
2023-04-29T08:27:02.002Z,66.74
2023-04-29T08:29:34.758Z,66.39
2023-04-29T08:32:05.245Z,66.53
2023-04-29T08:34:34.137Z,66.55
2023-04-29T08:37:01.260Z,66.33
2023-04-29T08:39:30.886Z,65.74
2023-04-29T08:41:59.551Z,65.89
2023-04-29T08:44:27.794Z,65.88
2023-04-29T08:46:54.971Z,65.73
2023-04-29T08:49:22.147Z,65.66
2023-04-29T08:51:51.808Z,65.82
2023-04-29T08:54:18.918Z,65.45
2023-04-29T08:56:50.294Z,65.06
2023-04-29T08:59:20.504Z,65.13
2023-04-29T09:01:52.119Z,64.97
2023-04-29T09:04:19.059Z,64.77
2023-04-29T09:06:47.032Z,65.36
2023-04-29T09:09:15.442Z,64.73
2023-04-29T09:11:42.543Z,64.65
2023-04-29T09:14:09.705Z,64.15
2023-04-29T09:16:38.537Z,63.89
2023-04-29T09:19:05.816Z,63.46
2023-04-29T09:21:33.559Z,63.13
2023-04-29T09:24:03.033Z,63.22
2023-04-29T09:26:49.863Z,62.49
2023-04-29T09:29:18.664Z,62.46
2023-04-29T09:31:46.480Z,62.64
2023-04-29T09:34:14.638Z,62.10
2023-04-29T09:36:51.391Z,61.72
2023-04-29T09:39:21.243Z,61.76
2023-04-29T09:41:53.970Z,61.84
2023-04-29T09:44:31.289Z,61.41
2023-04-29T09:47:05.378Z,61.56
2023-04-29T09:49:41.287Z,60.91
2023-04-29T09:52:14.065Z,60.83
2023-04-29T09:54:43.523Z,60.48
2023-04-29T09:57:12.856Z,60.16
2023-04-29T09:59:41.596Z,59.98
2023-04-29T10:02:18.957Z,59.41
2023-04-29T10:04:54.258Z,59.20
2023-04-29T10:07:21.874Z,59.48
2023-04-29T10:09:49.332Z,58.85
2023-04-29T10:12:21.271Z,58.65
2023-04-29T10:15:03.987Z,58.80
2023-04-29T10:17:47.418Z,58.36
2023-04-29T10:20:18.446Z,58.26
2023-04-29T10:22:58.013Z,58.32
2023-04-29T10:25:28.269Z,58.49
2023-04-29T10:27:56.499Z,58.17
2023-04-29T10:30:23.863Z,58.24
2023-04-29T10:32:52.773Z,57.87
2023-04-29T10:35:23.846Z,58.01
2023-04-29T10:37:51.539Z,58.23
2023-04-29T10:40:50.484Z,58.03
2023-04-29T10:43:26.684Z,57.90
2023-04-29T10:46:27.029Z,58.04
2023-04-29T10:49:02.609Z,58.41
2023-04-29T10:51:45.259Z,58.11
2023-04-29T10:54:17.103Z,57.84
2023-04-29T10:56:53.423Z,57.53
2023-04-29T10:59:43.723Z,57.40
2023-04-29T11:02:11.276Z,57.89
2023-04-29T11:05:11.352Z,57.10
2023-04-29T11:07:38.504Z,57.69
2023-04-29T11:10:07.310Z,57.60
2023-04-29T11:12:34.493Z,57.36
2023-04-29T11:15:05.648Z,57.26
2023-04-29T11:17:37.974Z,56.74
2023-04-29T11:20:12.574Z,56.38
2023-04-29T11:22:40.300Z,56.66
2023-04-29T11:25:09.285Z,56.19
2023-04-29T11:27:42.600Z,56.60
2023-04-29T11:30:10.362Z,56.66
2023-04-29T11:32:40.659Z,56.39
2023-04-29T11:35:15.764Z,56.02
2023-04-29T11:37:45.697Z,55.60
2023-04-29T11:40:14.119Z,56.04
2023-04-29T11:42:49.394Z,56.31
2023-04-29T11:45:20.260Z,56.44
2023-04-29T11:47:48.627Z,57.10
2023-04-29T11:50:20.014Z,57.51
2023-04-29T11:52:48.931Z,57.66
2023-04-29T11:55:17.647Z,57.43
2023-04-29T11:57:44.803Z,57.59
2023-04-29T12:00:13.816Z,57.86
2023-04-29T12:02:46.681Z,58.26
2023-04-29T12:05:16.376Z,58.06
2023-04-29T12:07:44.361Z,57.95
2023-04-29T12:10:12.957Z,57.99
2023-04-29T12:12:47.571Z,57.50
2023-04-29T12:15:15.220Z,57.28
2023-04-29T12:17:43.587Z,57.53
2023-04-29T12:20:12.316Z,57.46
2023-04-29T12:22:39.914Z,57.27
2023-04-29T12:25:08.194Z,57.78
2023-04-29T12:27:37.073Z,57.83
2023-04-29T12:30:09.811Z,58.12
2023-04-29T12:32:37.354Z,57.77
2023-04-29T12:35:04.931Z,58.08
2023-04-29T12:37:33.415Z,57.70
2023-04-29T12:40:00.876Z,57.99
2023-04-29T12:42:34.383Z,58.31
2023-04-29T12:45:02.722Z,57.90
2023-04-29T12:47:35.063Z,57.87
2023-04-29T12:50:03.066Z,57.46
2023-04-29T12:52:30.463Z,57.34
2023-04-29T12:54:58.039Z,57.75
2023-04-29T12:57:26.635Z,57.23
2023-04-29T12:59:53.750Z,57.47
2023-04-29T13:02:21.072Z,57.60
2023-04-29T13:04:48.440Z,57.48
2023-04-29T13:07:15.987Z,57.51
2023-04-29T13:09:43.081Z,57.22
2023-04-29T13:12:10.243Z,57.01
2023-04-29T13:14:37.490Z,56.42
2023-04-29T13:17:04.848Z,56.15
2023-04-29T13:19:48.122Z,56.12
2023-04-29T13:22:18.360Z,56.43
2023-04-29T13:24:46.101Z,56.20
2023-04-29T13:27:13.327Z,56.28
2023-04-29T13:29:40.589Z,56.42
2023-04-29T13:32:09.133Z,55.71
2023-04-29T13:34:36.385Z,55.59
2023-04-29T13:37:03.962Z,55.13
2023-04-29T13:39:31.720Z,55.10
2023-04-29T13:41:59.779Z,55.04
2023-04-29T13:44:34.410Z,55.21
2023-04-29T13:47:16.309Z,54.65
2023-04-29T13:50:16.903Z,53.83
2023-04-29T14:00:19.343Z,53.45
2023-04-29T14:05:23.141Z,52.60
2023-04-29T14:07:50.550Z,52.55
2023-04-29T14:10:17.684Z,52.48
2023-04-29T14:12:44.857Z,52.12
2023-04-29T14:15:12.364Z,52.07
2023-04-29T14:17:39.618Z,51.91
2023-04-29T14:20:07.934Z,52.28
2023-04-29T14:22:35.020Z,52.00
2023-04-29T14:25:02.568Z,51.83
2023-04-29T14:27:29.671Z,52.00
2023-04-29T14:29:56.734Z,51.79
2023-04-29T14:32:24.023Z,51.83
2023-04-29T14:34:51.264Z,51.96
2023-04-29T14:37:18.509Z,51.96
2023-04-29T14:39:45.633Z,51.72
2023-04-29T14:42:13.811Z,52.06
2023-04-29T14:44:41.074Z,51.83
2023-04-29T14:47:09.178Z,51.67
2023-04-29T14:49:36.354Z,52.08
2023-04-29T14:52:04.088Z,51.79
2023-04-29T14:54:31.807Z,51.81
2023-04-29T14:56:58.938Z,51.42
2023-04-29T14:59:26.182Z,51.45
2023-04-29T15:01:53.322Z,51.04
2023-04-29T15:04:20.475Z,51.23
2023-04-29T15:06:47.724Z,50.49
2023-04-29T15:09:14.780Z,50.69
2023-04-29T15:11:42.308Z,49.87
2023-04-29T15:14:09.385Z,50.27
2023-04-29T15:16:36.542Z,49.96
2023-04-29T15:19:04.068Z,50.07
2023-04-29T15:21:32.522Z,50.10
2023-04-29T15:23:59.600Z,50.39
2023-04-29T15:26:27.602Z,50.03
2023-04-29T15:28:54.754Z,50.15
2023-04-29T15:31:24.280Z,50.13
2023-04-29T15:33:55.647Z,50.62
2023-04-29T15:36:31.521Z,50.79
2023-04-29T15:38:59.240Z,51.01
2023-04-29T15:41:26.704Z,51.59
2023-04-29T15:43:55.070Z,51.58
2023-04-29T15:46:22.312Z,51.55
2023-04-29T15:48:49.595Z,52.12
2023-04-29T15:51:16.879Z,52.08
2023-04-29T15:53:44.762Z,51.97
2023-04-29T15:56:12.195Z,51.96
2023-04-29T15:58:39.357Z,52.30
2023-04-29T16:01:06.532Z,52.52
2023-04-29T16:03:33.976Z,52.26
2023-04-29T16:06:01.215Z,52.26
2023-04-29T16:08:28.356Z,52.32
2023-04-29T16:10:55.524Z,52.09
2023-04-29T16:13:22.711Z,52.09
2023-04-29T16:15:49.845Z,51.52
2023-04-29T16:18:18.056Z,51.57
2023-04-29T16:20:45.732Z,51.46
2023-04-29T16:23:12.833Z,51.11
2023-04-29T16:25:42.034Z,51.26
2023-04-29T16:28:09.200Z,51.59
2023-04-29T16:30:36.457Z,51.22
2023-04-29T16:33:04.037Z,51.44
2023-04-29T16:35:31.228Z,51.48
2023-04-29T16:37:58.437Z,51.74
2023-04-29T16:40:25.671Z,51.97
2023-04-29T16:42:53.624Z,52.21
2023-04-29T16:45:23.622Z,52.18
2023-04-29T16:47:51.213Z,52.62
2023-04-29T16:50:18.935Z,52.69
2023-04-29T16:52:46.140Z,53.08
2023-04-29T16:55:13.623Z,53.45
2023-04-29T16:57:40.779Z,53.67
2023-04-29T17:00:11.987Z,53.84
2023-04-29T17:02:43.348Z,53.85
2023-04-29T17:05:11.198Z,53.99
2023-04-29T17:07:38.478Z,53.87
2023-04-29T17:10:06.748Z,54.06
2023-04-29T17:12:36.727Z,54.34
2023-04-29T17:15:04.759Z,54.70
2023-04-29T17:17:32.469Z,54.91
2023-04-29T17:19:59.686Z,54.70
2023-04-29T17:22:27.077Z,54.98
2023-04-29T17:24:54.201Z,55.37
2023-04-29T17:27:21.290Z,55.17
2023-04-29T17:29:48.368Z,55.50
2023-04-29T17:32:17.560Z,55.86
2023-04-29T17:34:44.837Z,56.47
2023-04-29T17:37:11.943Z,56.85
2023-04-29T17:39:40.284Z,57.14
2023-04-29T17:42:07.658Z,57.38
2023-04-29T17:44:35.904Z,57.50
2023-04-29T17:47:03.152Z,57.88
2023-04-29T17:49:30.650Z,58.39
2023-04-29T17:51:57.762Z,58.63
2023-04-29T17:54:26.342Z,58.81
2023-04-29T17:56:53.427Z,58.84
2023-04-29T17:59:20.476Z,58.96
2023-04-29T18:01:47.973Z,59.04
2023-04-29T18:04:15.058Z,58.86
2023-04-29T18:06:42.229Z,58.82
2023-04-29T18:09:09.757Z,58.60
2023-04-29T18:11:36.869Z,58.37
2023-04-29T18:14:04.928Z,58.60
2023-04-29T18:16:32.660Z,58.47
2023-04-29T18:18:59.809Z,58.82
2023-04-29T18:21:28.319Z,58.86
2023-04-29T18:23:56.373Z,58.99
2023-04-29T18:26:23.989Z,58.99
2023-04-29T18:28:51.319Z,59.09
2023-04-29T18:31:19.163Z,59.54
2023-04-29T18:33:46.563Z,59.69
2023-04-29T18:36:14.540Z,59.80
2023-04-29T18:38:41.931Z,59.99
2023-04-29T18:41:09.172Z,59.95
2023-04-29T18:43:36.780Z,60.18
2023-04-29T18:46:04.073Z,60.31
2023-04-29T18:48:32.038Z,60.67
2023-04-29T18:51:04.499Z,60.50
2023-04-29T18:53:35.067Z,60.38
2023-04-29T18:56:05.320Z,60.55
2023-04-29T18:58:32.750Z,60.50
2023-04-29T19:01:00.356Z,60.82
2023-04-29T19:03:27.585Z,60.90
2023-04-29T19:05:54.785Z,60.74
2023-04-29T19:08:21.954Z,60.93
2023-04-29T19:10:49.046Z,61.24
2023-04-29T19:13:16.425Z,61.15
2023-04-29T19:15:43.895Z,61.37
2023-04-29T19:18:11.001Z,61.41
2023-04-29T19:20:38.151Z,61.65
2023-04-29T19:23:05.835Z,61.64
2023-04-29T19:25:32.967Z,61.82
2023-04-29T19:28:00.646Z,62.02
2023-04-29T19:30:27.738Z,62.00
2023-04-29T19:32:54.873Z,61.93
2023-04-29T19:35:22.094Z,61.82
2023-04-29T19:37:49.178Z,62.14
2023-04-29T19:40:16.573Z,62.00
2023-04-29T19:42:43.671Z,61.94
2023-04-29T19:45:12.973Z,62.21
2023-04-29T19:47:40.153Z,62.19
2023-04-29T19:50:07.930Z,62.29
2023-04-29T19:52:35.136Z,62.28
2023-04-29T19:55:02.596Z,62.31
2023-04-29T19:57:30.811Z,62.40
2023-04-29T19:59:57.950Z,62.61
2023-04-29T20:02:25.096Z,62.64
2023-04-29T20:04:52.332Z,62.68
2023-04-29T20:07:19.528Z,63.04
2023-04-29T20:09:46.694Z,63.14
2023-04-29T20:12:13.936Z,63.23
2023-04-29T20:14:41.395Z,63.40
2023-04-29T20:17:08.798Z,63.43
2023-04-29T20:19:35.845Z,63.65
2023-04-29T20:22:02.980Z,63.78
2023-04-29T20:24:30.230Z,63.79
2023-04-29T20:26:57.439Z,63.88
2023-04-29T20:29:25.080Z,64.06
2023-04-29T20:31:52.343Z,64.26
2023-04-29T20:34:19.489Z,64.52
2023-04-29T20:36:46.607Z,64.66
2023-04-29T20:39:13.674Z,64.84
2023-04-29T20:41:40.743Z,65.05
2023-04-29T20:44:07.913Z,65.30
2023-04-29T20:46:35.125Z,65.64
2023-04-29T21:03:30.202Z,66.14
2023-04-29T21:05:57.743Z,66.52
2023-04-29T21:08:24.902Z,66.88
2023-04-29T21:10:52.146Z,66.98
2023-04-29T21:13:19.288Z,67.17
2023-04-29T21:15:49.595Z,67.44
2023-04-29T21:18:17.009Z,67.32
2023-04-29T21:20:44.394Z,67.81
2023-04-29T21:23:11.457Z,67.77
2023-04-29T21:25:38.582Z,67.89
2023-04-29T21:28:05.762Z,68.01
2023-04-29T21:30:32.989Z,68.08
2023-04-29T21:33:00.460Z,68.21
2023-04-29T21:35:27.882Z,68.35
2023-04-29T21:37:55.246Z,68.35
2023-04-29T21:40:22.925Z,68.54
2023-04-29T21:42:51.261Z,68.60
2023-04-29T21:45:18.365Z,68.72
2023-04-29T21:47:45.725Z,68.92
2023-04-29T21:50:13.110Z,69.09
2023-04-29T21:52:40.283Z,69.01
2023-04-29T21:55:07.709Z,69.15
2023-04-29T21:57:44.124Z,69.34
2023-04-29T22:00:20.825Z,69.53
2023-04-29T22:02:48.009Z,69.62
2023-04-29T22:05:15.180Z,69.80
2023-04-29T22:07:42.927Z,69.81
2023-04-29T22:10:10.322Z,70.25
2023-04-29T22:12:37.396Z,70.16
2023-04-29T22:15:07.069Z,70.32
2023-04-29T22:17:36.172Z,70.21
2023-04-29T22:20:04.472Z,70.07
2023-04-29T22:22:34.204Z,70.33
2023-04-29T22:25:01.769Z,70.49
2023-04-29T22:27:28.853Z,70.73
2023-04-29T22:29:56.373Z,70.99
2023-04-29T22:32:24.037Z,70.92
2023-04-29T22:34:51.284Z,70.93
2023-04-29T22:37:18.667Z,71.17
2023-04-29T22:39:46.183Z,71.36
2023-04-29T22:42:13.259Z,71.44
2023-04-29T22:44:40.509Z,71.60
2023-04-29T22:47:07.634Z,71.73
2023-04-29T22:49:34.722Z,71.75
2023-04-29T22:52:02.713Z,71.89
2023-04-29T22:54:29.886Z,72.05
2023-04-29T22:56:58.373Z,72.07
2023-04-29T22:59:25.460Z,72.36
2023-04-29T23:01:52.715Z,72.43
2023-04-29T23:04:20.468Z,72.48
2023-04-29T23:06:47.681Z,72.41
2023-04-29T23:09:14.869Z,72.69
2023-04-29T23:11:42.007Z,72.68
2023-04-29T23:14:09.073Z,72.87
2023-04-29T23:16:36.134Z,72.96
2023-04-29T23:19:04.479Z,73.12
2023-04-29T23:21:34.236Z,73.05
2023-04-29T23:24:01.910Z,73.20
2023-04-29T23:26:28.968Z,73.20
2023-04-29T23:28:56.067Z,73.30
2023-04-29T23:31:23.226Z,73.38
2023-04-29T23:33:50.450Z,73.46
2023-04-29T23:36:17.628Z,73.62
2023-04-29T23:38:44.682Z,73.60
2023-04-29T23:41:11.753Z,73.63
2023-04-29T23:43:39.807Z,74.02
2023-04-29T23:46:06.964Z,73.90
2023-04-29T23:48:34.336Z,73.97
2023-04-29T23:51:04.410Z,73.99
2023-04-29T23:53:32.294Z,74.13
2023-04-29T23:55:59.461Z,74.15
2023-04-29T23:58:26.626Z,74.34
